createdAt,value
2022-11-18T00:02:03.002Z,10.80
2022-11-18T00:04:30.361Z,10.90
2022-11-18T00:06:59.262Z,10.90
2022-11-18T00:12:58.889Z,10.80
2022-11-18T00:15:51.723Z,10.80
2022-11-18T00:18:25.388Z,10.90
2022-11-18T00:21:06.667Z,11.00
2022-11-18T00:24:19.632Z,11.20
2022-11-18T00:27:43.448Z,11.10
2022-11-18T00:31:12.525Z,11.00
2022-11-18T00:34:05.811Z,11.00
2022-11-18T00:37:15.071Z,11.00
2022-11-18T00:40:13.279Z,10.90
2022-11-18T00:46:09.761Z,10.90
2022-11-18T00:49:48.089Z,10.90
2022-11-18T01:06:57.489Z,10.40
2022-11-18T01:16:51.303Z,10.70
2022-11-18T01:23:14.256Z,10.60
2022-11-18T01:25:43.751Z,10.60
2022-11-18T01:28:11.468Z,10.50
2022-11-18T01:30:39.901Z,10.60
2022-11-18T01:33:08.180Z,10.50
2022-11-18T01:35:35.920Z,10.50
2022-11-18T01:38:03.949Z,10.60
2022-11-18T01:40:32.525Z,10.50
2022-11-18T01:43:00.738Z,10.60
2022-11-18T01:50:40.800Z,10.80
2022-11-18T01:53:12.761Z,10.70
2022-11-18T01:55:45.420Z,10.70
2022-11-18T01:58:18.411Z,10.70
2022-11-18T02:00:48.430Z,10.80
2022-11-18T02:03:19.601Z,10.90
2022-11-18T02:05:49.940Z,11.10
2022-11-18T02:11:03.268Z,11.40
2022-11-18T02:13:31.821Z,11.20
2022-11-18T02:16:07.508Z,11.40
2022-11-18T02:18:46.776Z,11.40
2022-11-18T02:21:29.331Z,11.50
2022-11-18T02:24:26.580Z,11.50
2022-11-18T02:33:35.763Z,11.70
2022-11-18T02:36:08.720Z,11.70
2022-11-18T02:38:44.069Z,11.70
2022-11-18T02:41:17.570Z,11.60
2022-11-18T02:43:48.308Z,11.40
2022-11-18T02:46:21.181Z,11.20
2022-11-18T02:48:52.261Z,11.00
2022-11-18T02:56:31.947Z,10.90
2022-11-18T02:58:59.530Z,9.60
2022-11-18T03:01:30.484Z,9.60
2022-11-18T03:03:58.357Z,9.80
2022-11-18T03:06:34.741Z,10.10
2022-11-18T03:09:12.800Z,10.20
2022-11-18T03:12:00.391Z,10.20
2022-11-18T03:57:25.880Z,11.40
2022-11-18T03:59:59.500Z,10.70
2022-11-18T04:02:29.473Z,11.00
2022-11-18T04:04:58.269Z,11.00
2022-11-18T04:07:32.000Z,11.10
2022-11-18T04:10:06.399Z,11.10
2022-11-18T04:12:42.728Z,11.10
2022-11-18T04:20:17.371Z,10.70
2022-11-18T04:22:44.706Z,10.60
2022-11-18T04:25:12.428Z,10.60
2022-11-18T04:27:40.188Z,10.50
2022-11-18T04:30:09.419Z,10.40
2022-11-18T04:32:37.299Z,10.30
2022-11-18T04:35:06.160Z,10.40
2022-11-18T04:42:39.388Z,10.40
2022-11-18T04:45:08.711Z,10.60
2022-11-18T04:47:36.389Z,10.70
2022-11-18T04:50:04.580Z,10.80
2022-11-18T04:52:32.200Z,10.80
2022-11-18T04:54:59.612Z,10.60
2022-11-18T04:57:26.990Z,10.30
2022-11-18T05:02:36.401Z,10.40
2022-11-18T05:05:04.278Z,10.40
2022-11-18T05:07:31.796Z,10.30
2022-11-18T05:09:59.312Z,10.30
2022-11-18T05:12:47.220Z,10.30
2022-11-18T05:15:14.771Z,10.30
2022-11-18T05:17:44.060Z,10.20
2022-11-18T05:20:13.408Z,10.10
2022-11-18T05:27:45.938Z,10.20
2022-11-18T05:30:15.034Z,9.80
2022-11-18T05:32:42.324Z,10.10
2022-11-18T05:35:10.750Z,10.20
2022-11-18T05:37:38.017Z,10.20
2022-11-18T05:40:06.491Z,10.50
2022-11-18T05:42:51.540Z,10.60
2022-11-18T05:45:20.317Z,10.60
2022-11-18T05:50:27.138Z,10.70
2022-11-18T05:52:55.119Z,10.60
2022-11-18T05:55:26.454Z,10.60
2022-11-18T05:57:53.880Z,10.50
2022-11-18T06:00:22.623Z,10.60
2022-11-18T06:02:52.284Z,10.70
2022-11-18T06:05:22.216Z,10.70
2022-11-18T06:13:43.131Z,10.60
2022-11-18T06:16:13.119Z,10.40
2022-11-18T06:18:42.771Z,10.50
2022-11-18T06:21:10.965Z,10.50
2022-11-18T06:23:43.879Z,10.20
2022-11-18T06:26:11.839Z,9.80
2022-11-18T06:28:41.530Z,9.70
2022-11-18T06:46:59.149Z,9.80
2022-11-18T06:49:35.144Z,9.70
2022-11-18T06:52:02.403Z,9.90
2022-11-18T06:54:30.141Z,9.90
2022-11-18T06:56:57.819Z,9.90
2022-11-18T06:59:25.262Z,9.90
2022-11-18T07:01:56.629Z,9.90
2022-11-18T07:12:07.024Z,10.60
2022-11-18T07:14:34.693Z,10.60
2022-11-18T07:17:01.991Z,10.30
2022-11-18T07:19:35.467Z,10.30
2022-11-18T07:22:04.519Z,10.20
2022-11-18T07:24:32.317Z,10.10
2022-11-18T07:27:00.018Z,10.20
2022-11-18T07:37:27.301Z,10.10
2022-11-18T07:39:55.188Z,9.80
2022-11-18T07:42:22.838Z,9.60
2022-11-18T07:44:50.615Z,9.70
2022-11-18T07:47:18.032Z,9.70
2022-11-18T07:49:45.320Z,9.70
2022-11-18T07:52:13.294Z,9.40
2022-11-18T08:12:58.610Z,9.20
2022-11-18T08:15:26.241Z,9.40
2022-11-18T08:17:53.480Z,9.50
2022-11-18T08:20:21.510Z,9.90
2022-11-18T08:22:48.910Z,10.00
2022-11-18T08:25:16.510Z,9.70
2022-11-18T08:27:44.188Z,9.70
2022-11-18T08:38:15.438Z,9.90
2022-11-18T08:40:45.368Z,9.80
2022-11-18T08:43:13.268Z,9.60
2022-11-18T08:45:42.292Z,9.30
2022-11-18T08:48:10.076Z,9.40
2022-11-18T08:50:37.809Z,9.70
2022-11-18T08:53:05.220Z,9.80
2022-11-18T09:14:20.394Z,9.70
2022-11-18T09:16:47.778Z,9.40
2022-11-18T09:19:48.192Z,9.40
2022-11-18T09:22:16.210Z,9.50
2022-11-18T09:24:46.251Z,9.30
2022-11-18T09:27:53.319Z,9.60
2022-11-18T09:30:23.108Z,9.50
2022-11-18T09:33:06.971Z,9.50
2022-11-18T09:36:08.190Z,9.50
2022-11-18T09:39:05.379Z,9.70
2022-11-18T09:49:56.450Z,9.70
2022-11-18T09:56:16.383Z,9.40
2022-11-18T10:05:24.566Z,9.80
2022-11-18T10:08:33.560Z,10.10
2022-11-18T10:11:19.592Z,10.20
2022-11-18T10:25:54.192Z,10.10
2022-11-18T10:28:24.646Z,10.00
2022-11-18T10:30:53.054Z,10.20
2022-11-18T10:33:26.822Z,10.30
2022-11-18T10:36:11.729Z,10.40
2022-11-18T10:38:39.698Z,10.50
2022-11-18T10:41:13.361Z,10.60
2022-11-18T10:59:32.491Z,10.60
2022-11-18T11:02:09.485Z,10.30
2022-11-18T11:04:38.370Z,9.80
2022-11-18T11:07:25.756Z,9.90
2022-11-18T11:10:23.785Z,9.90
2022-11-18T11:12:57.784Z,10.20
2022-11-18T11:15:34.409Z,10.20
2022-11-18T11:23:26.841Z,10.20
2022-11-18T11:28:56.224Z,10.10
2022-11-18T11:31:30.601Z,9.90
2022-11-18T11:34:03.388Z,9.80
2022-11-18T11:36:42.642Z,10.00
2022-11-18T11:39:45.389Z,9.90
2022-11-18T12:00:24.408Z,9.80
2022-11-18T12:03:04.903Z,10.00
2022-11-18T12:05:36.242Z,10.00
2022-11-18T12:08:09.392Z,10.00
2022-11-18T12:10:45.871Z,10.10
2022-11-18T12:13:38.373Z,10.20
2022-11-18T12:16:18.810Z,10.30
2022-11-18T12:22:03.329Z,9.80
2022-11-18T12:24:39.839Z,9.70
2022-11-18T12:27:41.304Z,9.60
2022-11-18T12:30:19.789Z,9.90
2022-11-18T12:32:57.468Z,10.00
2022-11-18T12:35:28.870Z,10.30
2022-11-18T12:38:03.499Z,10.10
2022-11-18T12:56:23.068Z,10.10
2022-11-18T12:58:53.260Z,10.00
2022-11-18T13:01:23.331Z,9.90
2022-11-18T13:03:51.017Z,10.10
2022-11-18T13:06:30.376Z,10.10
2022-11-18T13:09:00.985Z,10.30
2022-11-18T13:11:46.841Z,10.50
2022-11-18T13:19:40.489Z,10.70
2022-11-18T13:22:35.861Z,9.90
2022-11-18T13:25:03.377Z,9.90
2022-11-18T13:27:49.460Z,9.90
2022-11-18T13:30:21.288Z,9.90
2022-11-18T13:32:58.373Z,9.80
2022-11-18T13:35:29.644Z,9.60
2022-11-18T13:37:58.946Z,9.80
2022-11-18T13:45:34.355Z,9.70
2022-11-18T13:48:07.977Z,9.40
2022-11-18T13:50:37.738Z,9.30
2022-11-18T13:53:24.465Z,9.60
2022-11-18T13:55:55.258Z,9.60
2022-11-18T13:58:40.043Z,9.50
2022-11-18T14:01:21.782Z,9.40
2022-11-18T14:11:36.736Z,9.30
2022-11-18T14:14:04.509Z,9.30
2022-11-18T14:16:34.446Z,9.50
2022-11-18T14:19:04.235Z,9.50
2022-11-18T14:21:36.436Z,9.60
2022-11-18T14:24:05.176Z,9.70
2022-11-18T14:26:36.021Z,9.60
2022-11-18T14:29:20.714Z,9.60
2022-11-18T14:39:31.527Z,9.70
2022-11-18T14:42:00.439Z,9.60
2022-11-18T14:44:30.379Z,9.60
2022-11-18T14:47:00.639Z,9.60
2022-11-18T14:49:31.014Z,9.60
2022-11-18T14:52:02.184Z,9.60
2022-11-18T14:54:31.129Z,9.70
2022-11-18T15:04:50.208Z,9.50
2022-11-18T15:07:23.396Z,9.30
2022-11-18T15:09:59.087Z,9.60
2022-11-18T15:12:27.025Z,9.50
2022-11-18T15:14:55.365Z,9.40
2022-11-18T15:17:24.468Z,9.40
2022-11-18T15:19:56.765Z,9.50
2022-11-18T15:22:25.695Z,9.60
2022-11-18T15:31:32.687Z,9.70
2022-11-18T15:34:06.954Z,9.70
2022-11-18T15:36:46.277Z,9.60
2022-11-18T15:39:23.501Z,9.50
2022-11-18T15:41:51.739Z,9.50
2022-11-18T15:45:11.444Z,9.50
2022-11-18T15:47:46.057Z,9.70
2022-11-18T15:50:19.927Z,9.50
2022-11-18T15:53:09.637Z,9.20
2022-11-18T15:55:52.578Z,9.30
2022-11-18T16:14:01.699Z,9.10
2022-11-18T16:16:31.065Z,9.10
2022-11-18T16:19:05.547Z,9.10
2022-11-18T16:21:35.680Z,9.10
2022-11-18T16:24:06.600Z,9.40
2022-11-18T16:26:36.991Z,9.30
2022-11-18T16:29:07.179Z,9.40
2022-11-18T16:49:57.650Z,9.80
2022-11-18T16:52:28.148Z,9.60
2022-11-18T16:55:00.527Z,9.70
2022-11-18T16:57:28.478Z,9.90
2022-11-18T16:59:58.549Z,9.90
2022-11-18T17:02:30.444Z,9.80
2022-11-18T17:05:06.109Z,10.00
2022-11-18T17:20:53.860Z,10.10
2022-11-18T17:23:22.168Z,10.00
2022-11-18T17:25:50.454Z,10.10
2022-11-18T17:28:18.976Z,10.30
2022-11-18T17:30:49.981Z,10.20
2022-11-18T17:33:22.649Z,10.10
2022-11-18T17:36:03.639Z,9.90
2022-11-18T17:43:46.186Z,9.50
2022-11-18T17:46:15.127Z,9.40
2022-11-18T17:48:44.736Z,9.40
2022-11-18T17:51:12.727Z,9.30
2022-11-18T17:53:43.487Z,9.30
2022-11-18T17:56:12.696Z,9.10
2022-11-18T17:58:45.307Z,9.10
2022-11-18T18:01:14.983Z,9.20
2022-11-18T18:08:51.106Z,9.10
2022-11-18T18:11:21.276Z,9.20
2022-11-18T18:14:08.539Z,9.30
2022-11-18T18:16:37.187Z,9.10
2022-11-18T18:19:09.858Z,9.40
2022-11-18T18:21:39.209Z,9.30
2022-11-18T18:24:13.178Z,9.20
2022-11-18T18:42:12.303Z,9.10
2022-11-18T18:44:57.866Z,9.10
2022-11-18T18:47:25.629Z,9.10
2022-11-18T18:49:53.905Z,9.20
2022-11-18T18:52:22.669Z,9.30
2022-11-18T18:54:52.918Z,9.10
2022-11-18T18:57:25.565Z,9.00
2022-11-18T19:18:38.886Z,8.90
2022-11-18T19:21:17.016Z,8.70
2022-11-18T19:23:50.753Z,8.60
2022-11-18T19:26:18.838Z,8.80
2022-11-18T19:28:47.562Z,8.60
2022-11-18T19:31:20.767Z,8.70
2022-11-18T19:33:54.205Z,8.70
2022-11-18T19:44:26.847Z,9.10
2022-11-18T19:46:55.128Z,9.30
2022-11-18T19:49:22.944Z,9.40
2022-11-18T19:51:50.863Z,9.30
2022-11-18T19:54:19.942Z,9.10
2022-11-18T19:56:49.091Z,9.00
2022-11-18T19:59:18.093Z,9.00
2022-11-18T20:01:46.719Z,8.60
2022-11-18T20:04:17.458Z,8.80
2022-11-18T20:11:52.892Z,9.00
2022-11-18T20:14:24.904Z,9.10
2022-11-18T20:16:52.941Z,9.10
2022-11-18T20:19:21.768Z,9.10
2022-11-18T20:21:50.454Z,9.00
2022-11-18T20:24:19.256Z,8.70
2022-11-18T20:26:52.005Z,9.00
2022-11-18T20:32:11.821Z,9.20
2022-11-18T20:34:45.015Z,9.00
2022-11-18T20:37:18.787Z,8.50
2022-11-18T20:39:47.866Z,8.50
2022-11-18T20:42:30.428Z,8.50
2022-11-18T20:44:59.906Z,8.40
2022-11-18T20:47:29.175Z,8.40
2022-11-18T20:49:57.683Z,8.40
2022-11-18T20:52:27.178Z,8.40
2022-11-18T21:00:01.353Z,8.30
2022-11-18T21:02:30.379Z,8.60
2022-11-18T21:04:58.931Z,8.80
2022-11-18T21:07:26.954Z,9.00
2022-11-18T21:09:54.881Z,9.10
2022-11-18T21:12:22.975Z,9.10
2022-11-18T21:14:49.748Z,9.00
2022-11-18T21:20:19.886Z,9.00
2022-11-18T21:22:48.929Z,9.10
2022-11-18T21:25:17.586Z,9.20
2022-11-18T21:27:49.780Z,9.20
2022-11-18T21:30:19.595Z,9.20
2022-11-18T21:32:48.009Z,9.30
2022-11-18T21:35:21.534Z,9.20
2022-11-18T21:37:49.329Z,9.20
2022-11-18T21:45:23.546Z,9.10
2022-11-18T21:47:53.768Z,8.70
2022-11-18T21:50:22.316Z,8.40
2022-11-18T21:52:55.935Z,8.10
2022-11-18T21:55:25.038Z,8.20
2022-11-18T21:58:02.659Z,8.20
2022-11-18T22:00:32.688Z,7.80
2022-11-18T22:08:11.325Z,7.80
2022-11-18T22:10:39.643Z,7.80
2022-11-18T22:13:10.242Z,7.80
2022-11-18T22:15:40.975Z,7.90
2022-11-18T22:18:09.394Z,7.90
2022-11-18T22:20:38.368Z,7.90
2022-11-18T22:23:11.685Z,8.00
2022-11-18T22:25:39.133Z,8.20
2022-11-18T22:41:30.726Z,7.50
2022-11-18T22:44:07.045Z,7.30
2022-11-18T22:46:35.647Z,7.20
2022-11-18T22:49:03.660Z,7.10
2022-11-18T22:51:31.732Z,7.00
2022-11-18T22:54:37.614Z,6.80
2022-11-18T22:56:50.459Z,6.80
2022-11-18T23:17:30.995Z,5.10
2022-11-18T23:19:58.429Z,5.40
2022-11-18T23:22:25.855Z,5.30
2022-11-18T23:24:53.325Z,5.30
2022-11-18T23:27:20.955Z,5.10
2022-11-18T23:29:48.915Z,5.20
2022-11-18T23:32:16.970Z,5.20
2022-11-18T23:34:45.807Z,4.60
2022-11-18T23:42:14.826Z,4.60
2022-11-18T23:44:45.223Z,4.90
2022-11-18T23:47:13.318Z,5.20
2022-11-18T23:49:40.667Z,5.30
2022-11-18T23:52:08.212Z,5.30
2022-11-18T23:54:35.660Z,5.50
2022-11-18T23:57:05.497Z,5.80
2022-11-18T23:59:34.715Z,6.00
